Time;durP1;ratioP1;P1;durP2;ratioP2;P2;SDS_P1;SDS_P2;PMS_P1;PMS_P2;Temp;Humidity;BMP_temperature;BMP_pressure;BME280_temperature;BME280_humidity;BME280_pressure;Samples;Min_cycle;Max_cycle;Signal;HPM_P1;HPM_P2
2023/01/08 00:01:53;;;;;;;22.08;3.53;;;;;;;;;;5020542;28;20272;-74
2023/01/08 00:04:18;;;;;;;23.45;4.65;;;;;;;;;;5024644;28;20025;-73
2023/01/08 00:06:44;;;;;;;17.55;2.90;;;;;;;;;;5020487;28;20078;-75
2023/01/08 00:09:12;;;;;;;22.95;5.00;;;;;;;;;;5029740;28;20298;-75
2023/01/08 00:11:37;;;;;;;22.98;4.22;;;;;;;;;;5026662;28;20469;-74
2023/01/08 00:14:03;;;;;;;18.63;4.50;;;;;;;;;;5021060;28;20099;-73
2023/01/08 00:16:28;;;;;;;26.45;4.28;;;;;;;;;;5021331;28;20035;-73
2023/01/08 00:18:54;;;;;;;30.98;4.38;;;;;;;;;;5020469;28;20033;-73
2023/01/08 00:21:22;;;;;;;24.90;4.05;;;;;;;;;;5019990;28;20040;-73
2023/01/08 00:23:48;;;;;;;22.77;3.25;;;;;;;;;;5022925;28;20033;-72
2023/01/08 00:26:13;;;;;;;28.13;4.00;;;;;;;;;;5024832;28;20312;-73
2023/01/08 00:28:39;;;;;;;28.75;3.83;;;;;;;;;;5026713;28;20025;-74
2023/01/08 00:31:08;;;;;;;24.00;3.50;;;;;;;;;;5025093;28;20033;-73
2023/01/08 00:33:37;;;;;;;22.25;3.78;;;;;;;;;;5024842;28;20045;-72
2023/01/08 00:36:06;;;;;;;24.15;4.38;;;;;;;;;;5058951;28;20120;-74
2023/01/08 00:38:31;;;;;;;28.77;3.97;;;;;;;;;;5033560;28;20033;-74
2023/01/08 00:40:57;;;;;;;25.00;5.53;;;;;;;;;;5030546;28;20029;-75
2023/01/08 00:43:24;;;;;;;27.55;6.00;;;;;;;;;;5028536;28;20025;-74
2023/01/08 00:45:53;;;;;;;22.77;5.25;;;;;;;;;;5029140;28;20021;-74
2023/01/08 00:48:24;;;;;;;28.70;6.60;;;;;;;;;;5048428;28;20048;-75
2023/01/08 00:50:50;;;;;;;28.50;8.40;;;;;;;;;;5049081;28;20706;-75
2023/01/08 00:53:20;;;;;;;30.20;8.40;;;;;;;;;;5047754;28;20129;-74
2023/01/08 00:55:48;;;;;;;34.03;7.57;;;;;;;;;;5027083;28;20550;-74
2023/01/08 00:58:14;;;;;;;30.75;7.47;;;;;;;;;;5031220;28;20044;-73
2023/01/08 01:00:39;;;;;;;35.03;7.38;;;;;;;;;;5036082;28;20025;-74
2023/01/08 01:03:05;;;;;;;33.58;8.95;;;;;;;;;;5032503;28;20033;-73
2023/01/08 01:05:30;;;;;;;37.70;7.70;;;;;;;;;;5033383;28;20072;-76
2023/01/08 01:07:56;;;;;;;31.75;7.60;;;;;;;;;;5034233;28;20147;-73
2023/01/08 01:10:21;;;;;;;31.95;9.52;;;;;;;;;;5031970;28;20337;-73
2023/01/08 01:12:47;;;;;;;41.50;9.85;;;;;;;;;;5031941;28;20583;-74
2023/01/08 01:15:14;;;;;;;57.50;10.40;;;;;;;;;;5031843;28;20041;-73
2023/01/08 01:17:40;;;;;;;53.95;11.18;;;;;;;;;;5032390;28;20618;-76
2023/01/08 01:20:06;;;;;;;60.38;10.65;;;;;;;;;;5036707;28;20021;-75
2023/01/08 01:22:31;;;;;;;52.22;10.07;;;;;;;;;;5040408;28;20031;-74
2023/01/08 01:24:56;;;;;;;53.33;9.88;;;;;;;;;;5040513;28;20497;-75
2023/01/08 01:27:24;;;;;;;47.85;8.73;;;;;;;;;;5032450;28;20037;-74
2023/01/08 01:29:49;;;;;;;40.60;8.85;;;;;;;;;;5057673;28;20024;-75
2023/01/08 01:32:15;;;;;;;35.55;8.43;;;;;;;;;;5054884;28;20652;-74
2023/01/08 01:34:40;;;;;;;53.63;8.45;;;;;;;;;;5049361;28;20515;-75
2023/01/08 01:37:08;;;;;;;47.30;8.77;;;;;;;;;;5049689;28;20062;-74
2023/01/08 01:39:33;;;;;;;47.45;8.27;;;;;;;;;;5050288;28;20533;-74
2023/01/08 01:42:01;;;;;;;36.05;7.63;;;;;;;;;;5051399;28;20085;-74
2023/01/08 01:44:45;;;;;;;35.95;6.22;;;;;;;;;;5046720;28;20430;-74
2023/01/08 01:47:20;;;;;;;27.45;5.00;;;;;;;;;;5023568;28;20029;-75
2023/01/08 01:49:49;;;;;;;29.20;6.72;;;;;;;;;;4978378;28;20026;-75
2023/01/08 01:52:14;;;;;;;31.77;6.28;;;;;;;;;;4997197;28;20517;-74
2023/01/08 01:54:40;;;;;;;20.25;4.55;;;;;;;;;;5009886;28;20040;-75
2023/01/08 01:57:07;;;;;;;28.98;5.00;;;;;;;;;;4987138;28;20103;-73
2023/01/08 01:59:32;;;;;;;21.98;5.43;;;;;;;;;;5001386;28;20034;-72
2023/01/08 02:01:58;;;;;;;21.23;5.82;;;;;;;;;;5003270;28;20145;-73
2023/01/08 02:04:23;;;;;;;28.08;4.90;;;;;;;;;;5001212;28;20102;-72
2023/01/08 02:07:12;;;;;;;23.35;4.88;;;;;;;;;;5003186;28;20025;-72
2023/01/08 02:09:49;;;;;;;20.55;5.32;;;;;;;;;;5001669;28;20132;-72
2023/01/08 02:12:18;;;;;;;24.60;6.13;;;;;;;;;;5019943;28;20567;-72
2023/01/08 02:15:02;;;;;;;25.98;4.95;;;;;;;;;;5022125;28;20557;-72
2023/01/08 02:17:34;;;;;;;45.03;17.85;;;;;;;;;;5020136;28;20095;-73
2023/01/08 02:20:10;;;;;;;31.25;9.75;;;;;;;;;;5019848;28;20119;-73
2023/01/08 02:22:43;;;;;;;24.73;6.93;;;;;;;;;;5021236;28;20072;-73
2023/01/08 02:25:17;;;;;;;36.42;6.90;;;;;;;;;;5002543;28;20025;-72
2023/01/08 02:27:44;;;;;;;31.30;7.05;;;;;;;;;;5019384;28;20461;-72
2023/01/08 02:30:12;;;;;;;22.23;6.18;;;;;;;;;;5020739;28;20029;-73
2023/01/08 02:32:39;;;;;;;16.92;4.72;;;;;;;;;;5003984;28;20111;-73
2023/01/08 02:35:08;;;;;;;24.20;9.25;;;;;;;;;;5022332;28;20464;-72
2023/01/08 02:37:36;;;;;;;36.30;11.65;;;;;;;;;;5022522;28;20033;-72
2023/01/08 02:40:02;;;;;;;22.02;8.18;;;;;;;;;;5022532;28;20028;-72
2023/01/08 02:42:44;;;;;;;19.65;5.30;;;;;;;;;;5022207;28;20025;-72
2023/01/08 02:45:30;;;;;;;27.75;7.60;;;;;;;;;;5022180;28;20316;-72
2023/01/08 02:48:13;;;;;;;26.73;5.28;;;;;;;;;;5045371;28;20035;-74
2023/01/08 02:50:39;;;;;;;16.60;3.80;;;;;;;;;;5050571;28;20036;-75
2023/01/08 02:53:04;;;;;;;21.35;5.78;;;;;;;;;;5051673;28;20436;-75
2023/01/08 02:55:32;;;;;;;22.80;6.30;;;;;;;;;;5050769;28;20175;-74
2023/01/08 02:57:58;;;;;;;20.83;5.95;;;;;;;;;;5048464;28;21688;-75
2023/01/08 03:00:23;;;;;;;17.33;4.88;;;;;;;;;;5050319;28;20111;-75
2023/01/08 03:02:51;;;;;;;16.10;4.40;;;;;;;;;;5049290;28;20089;-75
2023/01/08 03:05:22;;;;;;;19.98;4.28;;;;;;;;;;5049869;28;20146;-75
2023/01/08 03:07:48;;;;;;;19.83;6.13;;;;;;;;;;5051844;28;20061;-73
2023/01/08 03:10:19;;;;;;;19.77;5.35;;;;;;;;;;5056382;28;20037;-75
2023/01/08 03:12:56;;;;;;;21.23;5.78;;;;;;;;;;5056641;28;20055;-75
2023/01/08 03:15:26;;;;;;;21.92;8.05;;;;;;;;;;5053764;28;20520;-75
2023/01/08 03:17:56;;;;;;;20.10;5.93;;;;;;;;;;5054117;28;20116;-74
2023/01/08 03:20:23;;;;;;;16.77;5.95;;;;;;;;;;5054473;28;20032;-75
2023/01/08 03:22:51;;;;;;;25.17;8.80;;;;;;;;;;5054053;28;20051;-75
2023/01/08 03:25:19;;;;;;;25.67;7.57;;;;;;;;;;5054625;28;20036;-75
2023/01/08 03:27:45;;;;;;;17.58;6.20;;;;;;;;;;5054933;28;20214;-74
2023/01/08 03:30:12;;;;;;;19.23;5.20;;;;;;;;;;5055237;28;20039;-74
2023/01/08 03:32:39;;;;;;;22.38;6.80;;;;;;;;;;5055921;28;20323;-74
2023/01/08 03:35:08;;;;;;;26.35;7.60;;;;;;;;;;5046025;28;20499;-73
2023/01/08 03:37:39;;;;;;;22.23;7.53;;;;;;;;;;5019411;28;20036;-73
2023/01/08 03:40:11;;;;;;;21.60;5.70;;;;;;;;;;5018616;28;20035;-73
2023/01/08 03:42:36;;;;;;;24.73;7.63;;;;;;;;;;5006058;28;20022;-72
2023/01/08 03:45:01;;;;;;;26.50;7.10;;;;;;;;;;5032486;28;20100;-73
2023/01/08 03:47:31;;;;;;;27.50;7.45;;;;;;;;;;4998181;28;20945;-73
2023/01/08 03:49:59;;;;;;;21.67;7.10;;;;;;;;;;5020224;28;20080;-73
2023/01/08 03:52:26;;;;;;;22.73;6.68;;;;;;;;;;5021181;28;20031;-73
2023/01/08 03:54:51;;;;;;;25.10;7.07;;;;;;;;;;5020428;28;20026;-72
2023/01/08 03:57:19;;;;;;;21.90;7.13;;;;;;;;;;5023618;28;20036;-72
2023/01/08 03:59:44;;;;;;;21.48;6.40;;;;;;;;;;5045199;28;20358;-72
2023/01/08 04:02:10;;;;;;;20.45;6.18;;;;;;;;;;5045293;28;20430;-73
2023/01/08 04:04:36;;;;;;;19.17;5.45;;;;;;;;;;5044544;28;20203;-73
2023/01/08 04:07:01;;;;;;;19.48;6.25;;;;;;;;;;5045305;28;20747;-73
2023/01/08 04:09:27;;;;;;;20.55;5.78;;;;;;;;;;5044399;28;20029;-73
2023/01/08 04:11:52;;;;;;;58.72;34.65;;;;;;;;;;5044892;28;20035;-73
2023/01/08 04:14:17;;;;;;;29.58;10.63;;;;;;;;;;5044761;28;20062;-74
2023/01/08 04:16:43;;;;;;;27.25;8.65;;;;;;;;;;5044429;28;20088;-73
2023/01/08 04:19:12;;;;;;;25.13;7.38;;;;;;;;;;5043978;28;20564;-74
2023/01/08 04:21:37;;;;;;;33.20;9.95;;;;;;;;;;5045021;28;20189;-72
2023/01/08 04:24:05;;;;;;;27.15;9.00;;;;;;;;;;5044692;28;20081;-72
2023/01/08 04:26:35;;;;;;;25.60;8.85;;;;;;;;;;5041867;28;20515;-72
2023/01/08 04:29:03;;;;;;;24.48;7.75;;;;;;;;;;5042996;28;20036;-72
2023/01/08 04:31:31;;;;;;;27.23;7.63;;;;;;;;;;5044510;28;20032;-73
2023/01/08 04:33:57;;;;;;;26.92;6.20;;;;;;;;;;5044525;28;20051;-72
2023/01/08 04:36:22;;;;;;;33.35;8.18;;;;;;;;;;5043086;28;20032;-73
2023/01/08 04:38:47;;;;;;;28.08;6.05;;;;;;;;;;5042675;28;20044;-73
2023/01/08 04:41:13;;;;;;;28.00;5.80;;;;;;;;;;5032307;28;20040;-72
2023/01/08 04:43:38;;;;;;;27.83;5.32;;;;;;;;;;5055298;28;20028;-73
2023/01/08 04:46:06;;;;;;;29.55;5.38;;;;;;;;;;5028214;28;20107;-73
2023/01/08 04:48:34;;;;;;;30.05;6.10;;;;;;;;;;5044101;28;20265;-72
2023/01/08 04:51:00;;;;;;;31.33;6.38;;;;;;;;;;5025476;28;20610;-72
2023/01/08 04:53:25;;;;;;;28.85;5.35;;;;;;;;;;5044190;28;20572;-72
2023/01/08 04:55:51;;;;;;;29.98;5.10;;;;;;;;;;5043960;28;20090;-72
2023/01/08 04:58:16;;;;;;;29.90;6.28;;;;;;;;;;5043760;28;20037;-72
2023/01/08 05:00:42;;;;;;;28.73;6.25;;;;;;;;;;5025264;28;20051;-73
2023/01/08 05:03:10;;;;;;;23.77;5.85;;;;;;;;;;5044655;28;20223;-73
2023/01/08 05:05:37;;;;;;;31.63;6.05;;;;;;;;;;5043863;28;20029;-73
2023/01/08 05:08:03;;;;;;;35.20;6.57;;;;;;;;;;5041078;28;20083;-73
2023/01/08 05:10:31;;;;;;;26.20;5.20;;;;;;;;;;5041342;28;20554;-73
2023/01/08 05:12:57;;;;;;;25.25;4.93;;;;;;;;;;5041569;28;20040;-73
2023/01/08 05:15:22;;;;;;;19.25;4.07;;;;;;;;;;5041554;28;20124;-72
2023/01/08 05:17:47;;;;;;;23.10;4.07;;;;;;;;;;5041858;28;20214;-73
2023/01/08 05:20:13;;;;;;;22.83;4.72;;;;;;;;;;5043222;28;20049;-73
2023/01/08 05:22:38;;;;;;;21.85;3.88;;;;;;;;;;5043719;28;20512;-73
2023/01/08 05:25:06;;;;;;;19.48;4.30;;;;;;;;;;5040864;28;20090;-73
2023/01/08 05:27:32;;;;;;;20.30;3.90;;;;;;;;;;5043364;28;20097;-73
2023/01/08 05:29:57;;;;;;;24.25;4.60;;;;;;;;;;5043062;28;20028;-73
2023/01/08 05:32:22;;;;;;;19.30;4.55;;;;;;;;;;5008454;28;20284;-72
2023/01/08 05:34:50;;;;;;;25.90;4.75;;;;;;;;;;5042968;28;20113;-73
2023/01/08 05:37:15;;;;;;;29.33;4.60;;;;;;;;;;5041521;28;20056;-73
2023/01/08 05:39:40;;;;;;;22.33;3.50;;;;;;;;;;5032428;28;20443;-73
2023/01/08 05:42:06;;;;;;;22.55;4.22;;;;;;;;;;5023338;28;20037;-73
2023/01/08 05:44:31;;;;;;;17.55;3.40;;;;;;;;;;5023402;28;20475;-73
2023/01/08 05:46:56;;;;;;;17.10;3.30;;;;;;;;;;5034993;28;20039;-73
2023/01/08 05:49:22;;;;;;;31.10;9.40;;;;;;;;;;5043092;28;20445;-73
2023/01/08 05:51:48;;;;;;;15.88;3.97;;;;;;;;;;5042832;28;20473;-72
2023/01/08 05:54:15;;;;;;;15.82;3.03;;;;;;;;;;5042647;28;20036;-73
2023/01/08 05:56:42;;;;;;;19.02;3.92;;;;;;;;;;5040258;28;20715;-72
2023/01/08 05:59:10;;;;;;;15.18;3.30;;;;;;;;;;5042955;28;20038;-72
2023/01/08 06:01:35;;;;;;;16.27;3.30;;;;;;;;;;5042525;28;20139;-72
2023/01/08 06:04:01;;;;;;;20.15;3.67;;;;;;;;;;5043104;28;20582;-72
2023/01/08 06:06:26;;;;;;;14.10;3.13;;;;;;;;;;5042660;28;20032;-72
2023/01/08 06:08:51;;;;;;;12.73;3.10;;;;;;;;;;5024028;28;20181;-73
2023/01/08 06:11:19;;;;;;;16.23;3.58;;;;;;;;;;5040558;28;20147;-72
2023/01/08 06:13:45;;;;;;;19.48;3.60;;;;;;;;;;5039522;28;20429;-72
2023/01/08 06:16:12;;;;;;;17.98;3.88;;;;;;;;;;5024723;28;20033;-73
2023/01/08 06:18:38;;;;;;;20.23;4.40;;;;;;;;;;5024199;28;20045;-74
2023/01/08 06:21:04;;;;;;;20.60;3.78;;;;;;;;;;5042443;28;20279;-72
2023/01/08 06:23:29;;;;;;;16.25;3.47;;;;;;;;;;5040076;28;20032;-73
2023/01/08 06:25:56;;;;;;;17.42;4.60;;;;;;;;;;5043270;28;20546;-73
2023/01/08 06:28:21;;;;;;;21.05;5.38;;;;;;;;;;5042743;28;20540;-74
2023/01/08 06:30:47;;;;;;;16.77;4.30;;;;;;;;;;5040708;28;20097;-73
2023/01/08 06:33:12;;;;;;;19.15;3.30;;;;;;;;;;5042291;28;20054;-71
2023/01/08 06:35:38;;;;;;;16.50;3.20;;;;;;;;;;5043236;28;20041;-72
2023/01/08 06:38:05;;;;;;;13.30;3.53;;;;;;;;;;5034078;28;20620;-74
2023/01/08 06:40:30;;;;;;;20.60;3.13;;;;;;;;;;5022384;28;20236;-73
2023/01/08 06:43:00;;;;;;;23.77;4.50;;;;;;;;;;5022178;28;20040;-73
2023/01/08 06:45:27;;;;;;;18.67;4.35;;;;;;;;;;5021699;28;20417;-73
2023/01/08 06:47:55;;;;;;;14.27;3.33;;;;;;;;;;5041230;28;20048;-74
2023/01/08 06:50:20;;;;;;;17.80;3.42;;;;;;;;;;5029258;28;20029;-74
2023/01/08 06:52:53;;;;;;;13.70;3.78;;;;;;;;;;5059147;28;20052;-75
2023/01/08 06:55:18;;;;;;;23.88;4.00;;;;;;;;;;5058903;28;20320;-75
2023/01/08 06:57:44;;;;;;;16.05;3.55;;;;;;;;;;5058886;28;20115;-75
2023/01/08 07:00:11;;;;;;;13.38;3.28;;;;;;;;;;5057197;28;20017;-75
2023/01/08 07:02:37;;;;;;;14.52;3.13;;;;;;;;;;5057170;28;20504;-73
2023/01/08 07:05:02;;;;;;;22.08;4.03;;;;;;;;;;5055582;28;20073;-74
2023/01/08 07:07:28;;;;;;;17.48;3.50;;;;;;;;;;5056706;28;20036;-75
2023/01/08 07:09:53;;;;;;;15.32;2.83;;;;;;;;;;5053670;28;20472;-75
2023/01/08 07:12:19;;;;;;;22.42;4.53;;;;;;;;;;5057557;28;20385;-75
2023/01/08 07:14:44;;;;;;;17.63;3.53;;;;;;;;;;5059363;28;20195;-75
2023/01/08 07:17:10;;;;;;;20.05;4.00;;;;;;;;;;5063188;28;20024;-75
2023/01/08 07:19:37;;;;;;;16.58;4.10;;;;;;;;;;5043091;28;20381;-76
2023/01/08 07:22:03;;;;;;;15.63;3.92;;;;;;;;;;5060874;28;20032;-75
2023/01/08 07:24:28;;;;;;;20.63;4.35;;;;;;;;;;5062263;28;20473;-76
2023/01/08 07:26:54;;;;;;;21.55;4.88;;;;;;;;;;5062665;28;20028;-76
2023/01/08 07:29:22;;;;;;;19.85;4.60;;;;;;;;;;5060395;28;20075;-75
2023/01/08 07:31:47;;;;;;;25.67;4.68;;;;;;;;;;5060432;28;20103;-74
2023/01/08 07:34:12;;;;;;;21.42;5.07;;;;;;;;;;5062065;28;20175;-74
2023/01/08 07:36:42;;;;;;;17.98;4.28;;;;;;;;;;5060307;28;20401;-75
2023/01/08 07:39:08;;;;;;;21.70;5.53;;;;;;;;;;5062600;28;20048;-75
2023/01/08 07:41:33;;;;;;;24.60;5.40;;;;;;;;;;5060379;28;20544;-76
2023/01/08 07:43:58;;;;;;;23.13;4.65;;;;;;;;;;5061140;28;20021;-76
2023/01/08 07:46:24;;;;;;;20.10;6.22;;;;;;;;;;5061023;28;20107;-77
2023/01/08 07:48:49;;;;;;;24.00;5.93;;;;;;;;;;5063255;28;20029;-76
2023/01/08 07:51:14;;;;;;;20.52;5.13;;;;;;;;;;5063199;28;20481;-75
2023/01/08 07:53:39;;;;;;;21.90;4.90;;;;;;;;;;5062947;28;20033;-76
2023/01/08 07:56:08;;;;;;;24.13;6.45;;;;;;;;;;5062362;28;20447;-74
2023/01/08 07:58:34;;;;;;;24.77;8.23;;;;;;;;;;5062294;28;20497;-75
2023/01/08 08:01:00;;;;;;;28.25;9.23;;;;;;;;;;5061102;28;20027;-74
2023/01/08 08:03:25;;;;;;;25.58;8.57;;;;;;;;;;5062089;28;20094;-76
2023/01/08 08:05:50;;;;;;;19.05;4.35;;;;;;;;;;5059916;28;20056;-74
2023/01/08 08:08:16;;;;;;;22.63;4.65;;;;;;;;;;5060745;28;20033;-75
2023/01/08 08:10:42;;;;;;;25.05;5.13;;;;;;;;;;5059351;28;20060;-74
2023/01/08 08:13:08;;;;;;;17.73;3.30;;;;;;;;;;5063786;28;20040;-76
2023/01/08 08:15:34;;;;;;;16.52;3.65;;;;;;;;;;5061366;28;20609;-74
2023/01/08 08:17:59;;;;;;;24.35;4.22;;;;;;;;;;5060470;28;20028;-75
2023/01/08 08:20:24;;;;;;;19.80;4.25;;;;;;;;;;5061227;28;20058;-75
2023/01/08 08:22:58;;;;;;;18.27;4.07;;;;;;;;;;5064012;28;20028;-75
2023/01/08 08:25:26;;;;;;;11.45;3.28;;;;;;;;;;5062466;28;20251;-75
2023/01/08 08:27:54;;;;;;;16.40;3.88;;;;;;;;;;5040562;28;20567;-74
2023/01/08 08:30:20;;;;;;;18.88;4.82;;;;;;;;;;5043765;28;20028;-75
2023/01/08 08:32:46;;;;;;;18.38;3.75;;;;;;;;;;5048293;28;20386;-74
2023/01/08 08:35:11;;;;;;;18.38;5.05;;;;;;;;;;5034291;28;20519;-75
2023/01/08 08:37:36;;;;;;;24.38;5.80;;;;;;;;;;5024996;28;20106;-74
2023/01/08 08:40:02;;;;;;;23.05;5.03;;;;;;;;;;5024118;28;20043;-72
2023/01/08 08:42:27;;;;;;;23.88;4.47;;;;;;;;;;5037925;28;20040;-74
2023/01/08 08:44:53;;;;;;;28.15;6.65;;;;;;;;;;5043183;28;20024;-75
2023/01/08 08:47:18;;;;;;;20.50;4.85;;;;;;;;;;5027051;28;20021;-75
2023/01/08 08:49:43;;;;;;;22.55;4.30;;;;;;;;;;5044266;28;20039;-74
2023/01/08 08:52:09;;;;;;;18.00;3.97;;;;;;;;;;5044542;28;20036;-75
2023/01/08 08:54:34;;;;;;;34.28;6.63;;;;;;;;;;5025190;28;20356;-75
2023/01/08 08:57:05;;;;;;;30.13;5.55;;;;;;;;;;5041236;28;20032;-75
2023/01/08 08:59:30;;;;;;;24.65;4.45;;;;;;;;;;5027247;28;20456;-74
2023/01/08 09:01:55;;;;;;;22.15;4.68;;;;;;;;;;5061581;28;20199;-75
2023/01/08 09:04:20;;;;;;;23.05;4.60;;;;;;;;;;5042182;28;20033;-75
2023/01/08 09:06:46;;;;;;;17.48;3.40;;;;;;;;;;5042361;28;20037;-76
2023/01/08 09:09:11;;;;;;;15.20;3.55;;;;;;;;;;5040797;28;20025;-75
2023/01/08 09:11:37;;;;;;;22.83;6.20;;;;;;;;;;5042621;28;20124;-76
2023/01/08 09:14:03;;;;;;;18.63;5.35;;;;;;;;;;5044003;28;20087;-75
2023/01/08 09:16:28;;;;;;;17.38;3.45;;;;;;;;;;5041857;28;20098;-75
2023/01/08 09:18:53;;;;;;;20.90;4.53;;;;;;;;;;5034781;28;20249;-74
2023/01/08 09:21:19;;;;;;;19.20;3.90;;;;;;;;;;5023959;28;20486;-74
2023/01/08 09:23:46;;;;;;;19.70;4.30;;;;;;;;;;5029584;28;20036;-74
2023/01/08 09:26:12;;;;;;;18.85;4.38;;;;;;;;;;5032614;28;20122;-72
2023/01/08 09:28:37;;;;;;;23.38;5.05;;;;;;;;;;5024277;28;20120;-73
2023/01/08 09:31:03;;;;;;;18.48;3.88;;;;;;;;;;5026785;28;20029;-72
2023/01/08 09:33:29;;;;;;;25.95;4.80;;;;;;;;;;5026127;28;20670;-73
2023/01/08 09:35:57;;;;;;;17.33;4.43;;;;;;;;;;5028153;28;20033;-74
2023/01/08 09:38:22;;;;;;;17.75;4.40;;;;;;;;;;5027430;28;20595;-73
2023/01/08 09:41:03;;;;;;;21.00;4.75;;;;;;;;;;5024034;28;20107;-73
2023/01/08 09:43:30;;;;;;;23.67;5.28;;;;;;;;;;5026361;28;20182;-73
2023/01/08 09:45:58;;;;;;;24.17;5.63;;;;;;;;;;5028388;28;20510;-74
2023/01/08 09:48:25;;;;;;;23.92;5.35;;;;;;;;;;5022963;28;20033;-73
2023/01/08 09:50:51;;;;;;;24.50;5.00;;;;;;;;;;5024213;28;20040;-74
2023/01/08 09:53:19;;;;;;;23.25;4.35;;;;;;;;;;5023430;28;20543;-74
2023/01/08 09:56:00;;;;;;;18.45;3.92;;;;;;;;;;5025237;28;20114;-73
2023/01/08 09:58:34;;;;;;;20.45;4.78;;;;;;;;;;5025982;28;20032;-73
2023/01/08 10:01:02;;;;;;;21.35;4.25;;;;;;;;;;5045682;28;20101;-74
2023/01/08 10:03:47;;;;;;;18.08;3.63;;;;;;;;;;5057583;28;20033;-73
2023/01/08 10:06:14;;;;;;;17.25;3.30;;;;;;;;;;5028310;28;20150;-74
2023/01/08 10:08:40;;;;;;;19.60;3.70;;;;;;;;;;5043776;28;20055;-74
2023/01/08 10:11:09;;;;;;;22.92;4.00;;;;;;;;;;5043475;28;20583;-74
2023/01/08 10:13:41;;;;;;;16.73;3.08;;;;;;;;;;5061255;28;20785;-73
2023/01/08 10:16:08;;;;;;;13.77;3.60;;;;;;;;;;5056553;28;20043;-74
2023/01/08 10:18:33;;;;;;;15.07;3.08;;;;;;;;;;5061623;28;20040;-75
2023/01/08 10:20:59;;;;;;;10.90;3.35;;;;;;;;;;5042981;28;20039;-73
2023/01/08 10:23:24;;;;;;;17.83;4.40;;;;;;;;;;5035532;28;20412;-74
2023/01/08 10:25:53;;;;;;;17.55;4.38;;;;;;;;;;5045677;28;20525;-72
2023/01/08 10:28:22;;;;;;;20.00;4.28;;;;;;;;;;5042412;28;20323;-73
2023/01/08 10:30:49;;;;;;;15.43;3.17;;;;;;;;;;5041879;28;20113;-72
2023/01/08 10:33:19;;;;;;;17.13;3.80;;;;;;;;;;5028367;28;20056;-74
2023/01/08 10:35:51;;;;;;;23.60;3.78;;;;;;;;;;5022361;28;20555;-73
2023/01/08 10:38:27;;;;;;;16.77;3.90;;;;;;;;;;5033707;28;20397;-74
2023/01/08 10:40:54;;;;;;;13.18;3.40;;;;;;;;;;5028760;28;20261;-72
2023/01/08 10:43:32;;;;;;;17.45;3.42;;;;;;;;;;5022318;28;22269;-72
2023/01/08 10:46:05;;;;;;;18.85;3.88;;;;;;;;;;5023142;28;20020;-73
2023/01/08 10:48:45;;;;;;;15.35;3.83;;;;;;;;;;5040694;28;20032;-72
2023/01/08 10:51:19;;;;;;;18.83;4.30;;;;;;;;;;5051015;28;20106;-75
2023/01/08 10:53:44;;;;;;;16.70;3.72;;;;;;;;;;5062302;28;20039;-75
2023/01/08 10:56:17;;;;;;;17.33;4.60;;;;;;;;;;5060181;28;20036;-75
2023/01/08 10:58:45;;;;;;;21.98;5.05;;;;;;;;;;5057048;28;20029;-75
2023/01/08 11:01:23;;;;;;;17.65;3.45;;;;;;;;;;5059291;28;20136;-76
2023/01/08 11:03:54;;;;;;;12.20;3.30;;;;;;;;;;5050510;28;20447;-73
2023/01/08 11:06:21;;;;;;;18.88;3.97;;;;;;;;;;5041062;28;20032;-73
2023/01/08 11:09:10;;;;;;;18.25;3.75;;;;;;;;;;5039250;28;20036;-73
2023/01/08 11:11:36;;;;;;;21.27;3.30;;;;;;;;;;5030405;28;20032;-74
2023/01/08 11:14:10;;;;;;;18.83;3.58;;;;;;;;;;5041595;28;20386;-74
2023/01/08 11:16:36;;;;;;;16.10;3.88;;;;;;;;;;5041428;28;20745;-74
2023/01/08 11:19:03;;;;;;;15.30;3.17;;;;;;;;;;5041006;28;20044;-74
2023/01/08 11:21:32;;;;;;;15.32;3.08;;;;;;;;;;5042296;28;20468;-74
2023/01/08 11:24:23;;;;;;;14.48;3.38;;;;;;;;;;5043872;28;20047;-74
2023/01/08 11:26:53;;;;;;;18.50;3.47;;;;;;;;;;5054729;28;20063;-75
2023/01/08 11:29:27;;;;;;;17.20;3.50;;;;;;;;;;5050920;28;20037;-73
2023/01/08 11:32:19;;;;;;;18.90;3.22;;;;;;;;;;5026137;28;20025;-73
2023/01/08 11:34:51;;;;;;;13.25;3.25;;;;;;;;;;5027623;28;20040;-76
2023/01/08 11:37:24;;;;;;;16.35;3.10;;;;;;;;;;5034552;28;20390;-75
2023/01/08 11:39:51;;;;;;;15.32;3.88;;;;;;;;;;5036883;28;20033;-76
2023/01/08 11:42:26;;;;;;;16.85;3.80;;;;;;;;;;5035575;28;20452;-75
2023/01/08 11:45:00;;;;;;;16.60;3.20;;;;;;;;;;5038760;28;20028;-76
2023/01/08 11:47:26;;;;;;;14.07;3.75;;;;;;;;;;5035093;28;20044;-75
2023/01/08 11:50:00;;;;;;;19.35;4.93;;;;;;;;;;5035237;28;20037;-76
2023/01/08 11:52:26;;;;;;;14.98;3.85;;;;;;;;;;5038905;28;20032;-74
2023/01/08 11:55:05;;;;;;;10.40;2.97;;;;;;;;;;5036437;28;20658;-76
2023/01/08 11:57:30;;;;;;;15.00;3.50;;;;;;;;;;5035900;28;20270;-76
2023/01/08 12:00:10;;;;;;;18.45;3.92;;;;;;;;;;5032286;28;20112;-73
2023/01/08 12:02:46;;;;;;;16.20;3.05;;;;;;;;;;5021146;28;20036;-74
2023/01/08 12:05:24;;;;;;;13.55;3.40;;;;;;;;;;5003092;28;20061;-74
2023/01/08 12:07:55;;;;;;;17.10;3.30;;;;;;;;;;5020580;28;20041;-74
2023/01/08 12:10:39;;;;;;;12.75;2.83;;;;;;;;;;5022731;28;20541;-75
2023/01/08 12:13:13;;;;;;;24.00;3.42;;;;;;;;;;5020305;28;20456;-73
2023/01/08 12:15:52;;;;;;;20.55;3.60;;;;;;;;;;5020348;28;20053;-73
2023/01/08 12:18:22;;;;;;;13.50;3.38;;;;;;;;;;5024570;28;20029;-73
2023/01/08 12:20:50;;;;;;;12.15;3.35;;;;;;;;;;5023531;28;20350;-74
2023/01/08 12:23:15;;;;;;;16.20;3.50;;;;;;;;;;5024771;28;20095;-73
2023/01/08 12:25:50;;;;;;;20.90;4.78;;;;;;;;;;5024394;28;20478;-74
2023/01/08 12:28:15;;;;;;;19.50;3.83;;;;;;;;;;5021260;28;20044;-73
2023/01/08 12:30:50;;;;;;;25.30;4.10;;;;;;;;;;5023958;28;20561;-73
2023/01/08 12:33:27;;;;;;;17.00;4.18;;;;;;;;;;5024192;28;20073;-75
2023/01/08 12:35:53;;;;;;;14.93;3.95;;;;;;;;;;5023245;28;20032;-73
2023/01/08 12:38:19;;;;;;;17.73;3.97;;;;;;;;;;5024495;28;20048;-73
2023/01/08 12:40:48;;;;;;;23.90;3.60;;;;;;;;;;5025001;28;20525;-74
2023/01/08 12:43:19;;;;;;;17.13;3.67;;;;;;;;;;5023762;28;20029;-73
2023/01/08 12:45:45;;;;;;;16.70;3.03;;;;;;;;;;5023968;28;20289;-73
2023/01/08 12:48:14;;;;;;;13.40;3.33;;;;;;;;;;5022420;28;20107;-74
2023/01/08 12:50:48;;;;;;;18.77;3.85;;;;;;;;;;5024258;28;20107;-72
2023/01/08 12:53:23;;;;;;;16.25;2.75;;;;;;;;;;5024049;28;20584;-72
2023/01/08 12:55:53;;;;;;;14.35;3.22;;;;;;;;;;5021965;28;20029;-73
2023/01/08 12:58:18;;;;;;;15.98;3.40;;;;;;;;;;5029872;28;20056;-76
2023/01/08 13:01:01;;;;;;;15.38;3.35;;;;;;;;;;5027165;28;20125;-76
2023/01/08 13:03:31;;;;;;;18.98;3.63;;;;;;;;;;5045556;28;20436;-76
2023/01/08 13:06:25;;;;;;;16.85;3.90;;;;;;;;;;5042726;28;20029;-76
2023/01/08 13:08:52;;;;;;;13.77;3.25;;;;;;;;;;5029293;28;20433;-76
2023/01/08 13:11:24;;;;;;;16.90;3.30;;;;;;;;;;5037297;28;20041;-75
2023/01/08 13:13:57;;;;;;;13.63;3.63;;;;;;;;;;5042794;28;20060;-74
2023/01/08 13:16:23;;;;;;;16.38;3.25;;;;;;;;;;5038363;28;20423;-76
2023/01/08 13:18:50;;;;;;;12.57;2.78;;;;;;;;;;5038652;28;20047;-74
2023/01/08 13:21:16;;;;;;;13.75;3.10;;;;;;;;;;5039685;28;20548;-76
2023/01/08 13:23:41;;;;;;;13.07;3.40;;;;;;;;;;5042452;28;20104;-75
2023/01/08 13:26:09;;;;;;;10.00;3.25;;;;;;;;;;5038229;28;20190;-76
2023/01/08 13:28:41;;;;;;;20.42;3.63;;;;;;;;;;5040039;28;20080;-75
2023/01/08 13:31:08;;;;;;;19.27;4.00;;;;;;;;;;5040912;28;20541;-76
2023/01/08 13:33:33;;;;;;;12.50;2.90;;;;;;;;;;5046477;28;20485;-77
2023/01/08 13:36:16;;;;;;;13.20;3.65;;;;;;;;;;5042231;28;20104;-76
2023/01/08 13:38:42;;;;;;;16.13;3.03;;;;;;;;;;5040755;28;20021;-75
2023/01/08 13:41:23;;;;;;;15.73;3.20;;;;;;;;;;5026490;28;20029;-72
2023/01/08 13:43:50;;;;;;;15.55;3.65;;;;;;;;;;5023314;28;20029;-74
2023/01/08 13:46:17;;;;;;;11.45;2.80;;;;;;;;;;5018373;28;20095;-73
2023/01/08 13:48:49;;;;;;;18.23;4.03;;;;;;;;;;5007575;28;20092;-73
2023/01/08 13:51:31;;;;;;;15.75;4.38;;;;;;;;;;5023217;28;20389;-73
2023/01/08 13:54:05;;;;;;;17.35;4.22;;;;;;;;;;5009023;28;20037;-73
2023/01/08 13:56:30;;;;;;;15.95;3.40;;;;;;;;;;5003794;28;20106;-74
2023/01/08 13:58:56;;;;;;;17.35;3.88;;;;;;;;;;5004513;28;20585;-73
2023/01/08 14:01:22;;;;;;;14.85;3.13;;;;;;;;;;5003497;28;20694;-73
2023/01/08 14:03:47;;;;;;;14.50;3.33;;;;;;;;;;5003774;28;20025;-72
2023/01/08 14:06:16;;;;;;;10.10;3.20;;;;;;;;;;5005687;28;20033;-73
2023/01/08 14:08:50;;;;;;;13.73;3.80;;;;;;;;;;5022031;28;20048;-74
2023/01/08 14:11:16;;;;;;;18.42;6.00;;;;;;;;;;5020493;28;20474;-75
2023/01/08 14:13:44;;;;;;;18.15;3.85;;;;;;;;;;4998563;28;20123;-73
2023/01/08 14:16:11;;;;;;;19.17;4.45;;;;;;;;;;5006908;28;20108;-73
2023/01/08 14:18:39;;;;;;;12.07;3.50;;;;;;;;;;5002096;28;20071;-72
2023/01/08 14:21:08;;;;;;;10.35;2.83;;;;;;;;;;5002988;28;20425;-74
2023/01/08 14:23:35;;;;;;;9.65;3.60;;;;;;;;;;5004707;28;20652;-73
2023/01/08 14:26:07;;;;;;;13.10;3.38;;;;;;;;;;5005188;28;20494;-73
2023/01/08 14:28:32;;;;;;;17.88;4.18;;;;;;;;;;5022817;28;20167;-73
2023/01/08 14:30:58;;;;;;;14.95;3.70;;;;;;;;;;5025618;28;20584;-73
2023/01/08 14:33:25;;;;;;;11.15;3.10;;;;;;;;;;5029013;28;20101;-73
2023/01/08 14:35:51;;;;;;;16.48;6.63;;;;;;;;;;5059993;28;20032;-73